Bearcreek, MT (59007)

11:33 PM MST on February 11, 2016 (GMT -0700)
Old Town | | Change Station
CLOSE
Current Station
Personal Weather Station
Location: Red Lodge, MT
Elevation: 5594 ft
Nearby Weather Stations

Elev 5594 ft 45.18 °N, 109.25 °W | Updated 6 minutes ago

Overcast
Overcast
37.2 °F
Feels Like 37 °F
N
0.0
Wind Variable Wind from North

Today
High -- | Low -- °F
--% Chance of Precip.
Yesterday
High -- | Low -- °F
Precip. -- in
Pressure 30.24 in
Visibility 10.0 miles
Clouds Few 7000 ft
Mostly Cloudy 9500 ft
Windchill 37 °F
Dew Point 25 °F
Humidity 62%
Rainfall 0.00 in
Snow Depth Not available.
7:24 AM 5:38 PM
Waxing Crescent, 18% visible
METAR KCOD 120615Z AUTO 06004KT 10SM FEW070 BKN095 04/M06 A3024 RMK AO1
Pressure 30.24 in
Visibility 10.0 miles
Clouds Few 7000 ft
Mostly Cloudy 9500 ft
Windchill 37 °F
Dew Point 25 °F
Humidity 62%
Rainfall 0.00 in
Snow Depth Not available.
7:24 AM 5:38 PM
Waxing Crescent, 18% visible
METAR KCOD 120615Z AUTO 06004KT 10SM FEW070 BKN095 04/M06 A3024 RMK AO1

10-Day Weather Forecast

Almanac

Astronomy

Feb. 11, 2016 Rise Set
Actual Time
Civil Twilight
Nautical Twilight
Astronomical Twilight
Moon
Length of Visible Light
Length of Day
Tomorrow will be .
, % of the Moon is Illuminated

Today's Extremes

State Highs State Lows

Community

WunderPhotos

Upload Photos

1,892,276 photos uploaded!

WunderBlog® & News

Nearby

Air Quality

  Air Quality AQ Index Pollutant
Not available.

Snow Depth

Station Depth Elevation

Earthquake Activity

City Distance Mag. Time & Date
Minimum magnitude displayed is 2.5.

Coastal Water Temperatures

Place Temperature

Stations

Nearby Weather Stations

Station Location Temp. Windchill Dew Point Humidity Wind Precip. Elev Updated Type
                   

Watches & Warnings

There are currently no watches in effect.